Time,TemperatureF,DewpointF,PressureIn,WindDirection,WindDirectionDegrees,WindSpeedMPH,WindSpeedGustMPH,Humidity,HourlyPrecipIn,Conditions,Clouds,dailyrainin,SoftwareType,DateUTC
2013-09-28 00:01:00,50.5,49.1,30.23,NNW,343,0.0,2.0,95,0.00,,,0.00,meteohub,2013-09-28 04:01:00,
2013-09-28 00:02:00,50.5,49.1,30.23,NNW,343,0.0,2.0,95,0.00,,,0.00,meteohub,2013-09-28 04:02:00,
2013-09-28 00:07:00,50.5,49.1,30.23,NNW,343,0.0,2.0,95,0.00,,,0.00,meteohub,2013-09-28 04:07:00,
2013-09-28 00:08:00,50.5,49.1,30.22,NNW,343,0.0,2.0,95,0.00,,,0.00,meteohub,2013-09-28 04:08:00,
2013-09-28 00:11:00,50.5,49.1,30.22,NNW,343,0.0,2.0,95,0.00,,,0.00,meteohub,2013-09-28 04:11:00,
2013-09-28 00:16:00,50.4,48.9,30.22,NNW,343,0.0,1.0,95,0.00,,,0.00,meteohub,2013-09-28 04:16:00,
2013-09-28 00:21:00,50.5,49.5,30.22,NNW,343,0.0,1.0,96,0.00,,,0.00,meteohub,2013-09-28 04:21:00,
2013-09-28 00:26:00,50.5,49.5,30.22,NNW,343,0.0,1.0,96,0.00,,,0.00,meteohub,2013-09-28 04:26:00,
2013-09-28 00:31:00,50.7,49.6,30.22,NNW,343,0.0,1.0,96,0.00,,,0.00,meteohub,2013-09-28 04:31:00,
2013-09-28 00:36:00,50.7,49.6,30.22,NNW,343,0.0,2.0,96,0.00,,,0.00,meteohub,2013-09-28 04:36:00,
2013-09-28 00:41:00,50.5,49.5,30.22,NNW,343,1.0,2.0,96,0.00,,,0.00,meteohub,2013-09-28 04:41:00,
2013-09-28 00:47:00,50.7,49.6,30.22,NNW,343,0.0,2.0,96,0.00,,,0.00,meteohub,2013-09-28 04:47:00,
2013-09-28 00:52:00,50.5,49.5,30.22,NNW,343,0.0,2.0,96,0.00,,,0.00,meteohub,2013-09-28 04:52:00,
2013-09-28 00:57:00,50.4,49.3,30.23,NNW,343,1.0,2.0,96,0.00,,,0.00,meteohub,2013-09-28 04:57:00,
2013-09-28 01:02:00,50.2,49.1,30.23,NNW,343,1.0,1.0,96,0.00,,,0.00,meteohub,2013-09-28 05:02:00,
2013-09-28 01:07:00,50.0,48.9,30.23,NNW,343,1.0,2.0,96,0.00,,,0.00,meteohub,2013-09-28 05:07:00,
2013-09-28 01:12:00,49.8,48.7,30.23,NNW,343,0.0,2.0,96,0.00,,,0.00,meteohub,2013-09-28 05:12:00,
2013-09-28 01:17:00,49.8,48.7,30.23,NNW,343,0.0,2.0,96,0.00,,,0.00,meteohub,2013-09-28 05:17:00,
2013-09-28 01:22:00,50.2,49.3,30.23,NNW,343,0.0,2.0,97,0.01,,,0.01,meteohub,2013-09-28 05:22:00,
2013-09-28 01:27:00,50.5,49.6,30.23,NNW,343,0.0,0.0,97,0.01,,,0.01,meteohub,2013-09-28 05:27:00,
2013-09-28 01:32:00,50.5,49.6,30.23,NNW,343,0.0,0.0,97,0.01,,,0.01,meteohub,2013-09-28 05:32:00,
2013-09-28 01:37:00,50.7,49.8,30.23,NNW,343,0.0,0.0,97,0.01,,,0.01,meteohub,2013-09-28 05:37:00,
2013-09-28 01:42:00,50.7,49.8,30.23,NNW,343,0.0,0.0,97,0.01,,,0.01,meteohub,2013-09-28 05:42:00,
2013-09-28 01:47:00,50.5,49.6,30.23,NNW,343,0.0,0.0,97,0.01,,,0.01,meteohub,2013-09-28 05:47:00,
2013-09-28 01:52:00,50.5,49.6,30.23,NNW,343,0.0,0.0,97,0.01,,,0.01,meteohub,2013-09-28 05:52:00,
2013-09-28 01:57:00,50.7,49.8,30.23,NNW,343,0.0,0.0,97,0.01,,,0.01,meteohub,2013-09-28 05:57:00,
2013-09-28 02:02:00,50.7,49.8,30.24,NNW,343,0.0,0.0,97,0.01,,,0.01,meteohub,2013-09-28 06:02:00,
2013-09-28 02:07:00,50.7,49.8,30.23,NNW,343,0.0,0.0,97,0.01,,,0.01,meteohub,2013-09-28 06:07:00,
2013-09-28 02:12:00,50.7,49.8,30.23,NNW,343,0.0,0.0,97,0.01,,,0.01,meteohub,2013-09-28 06:12:00,
2013-09-28 02:17:00,50.7,49.8,30.24,NNW,343,0.0,0.0,97,0.00,,,0.01,meteohub,2013-09-28 06:17:00,
2013-09-28 02:22:00,50.7,49.8,30.24,NNW,343,0.0,0.0,97,0.00,,,0.01,meteohub,2013-09-28 06:22:00,
2013-09-28 02:27:00,50.4,49.3,30.24,NNW,343,0.0,0.0,96,0.00,,,0.01,meteohub,2013-09-28 06:27:00,
2013-09-28 02:32:00,50.2,49.1,30.24,NNW,343,0.0,0.0,96,0.00,,,0.01,meteohub,2013-09-28 06:32:00,
2013-09-28 02:37:00,50.4,49.5,30.24,NNW,343,0.0,0.0,97,0.00,,,0.01,meteohub,2013-09-28 06:37:00,
2013-09-28 02:42:00,50.2,49.3,30.23,NNW,343,0.0,0.0,97,0.00,,,0.01,meteohub,2013-09-28 06:42:00,
2013-09-28 02:47:00,50.2,49.3,30.23,NNW,343,0.0,0.0,97,0.00,,,0.01,meteohub,2013-09-28 06:47:00,
2013-09-28 02:52:00,49.8,48.7,30.24,NNW,343,0.0,0.0,96,0.00,,,0.01,meteohub,2013-09-28 06:52:00,
2013-09-28 02:57:00,49.6,48.6,30.24,NNW,343,0.0,0.0,96,0.00,,,0.01,meteohub,2013-09-28 06:57:00,
2013-09-28 03:02:00,49.8,48.9,30.24,NNW,343,0.0,0.0,97,0.00,,,0.01,meteohub,2013-09-28 07:02:00,
2013-09-28 03:07:00,50.2,49.3,30.23,NNW,343,0.0,0.0,97,0.00,,,0.01,meteohub,2013-09-28 07:07:00,
2013-09-28 03:12:00,50.4,49.5,30.23,NNW,343,0.0,0.0,97,0.00,,,0.01,meteohub,2013-09-28 07:12:00,
2013-09-28 03:17:00,49.8,48.7,30.23,NNW,343,0.0,0.0,96,0.00,,,0.01,meteohub,2013-09-28 07:17:00,
2013-09-28 03:22:00,49.6,48.7,30.23,NNW,343,0.0,0.0,97,0.00,,,0.01,meteohub,2013-09-28 07:22:00,
2013-09-28 03:27:00,49.6,48.7,30.23,NNW,343,0.0,0.0,97,0.00,,,0.01,meteohub,2013-09-28 07:27:00,
2013-09-28 03:32:00,49.8,48.9,30.23,NNW,343,0.0,0.0,97,0.00,,,0.01,meteohub,2013-09-28 07:32:00,
2013-09-28 03:37:00,49.8,48.9,30.23,NNW,343,0.0,0.0,97,0.00,,,0.01,meteohub,2013-09-28 07:37:00,
2013-09-28 03:42:00,49.5,48.6,30.23,NNW,343,0.0,0.0,97,0.00,,,0.01,meteohub,2013-09-28 07:42:00,
2013-09-28 03:47:00,49.3,48.4,30.23,NNW,343,0.0,0.0,97,0.00,,,0.01,meteohub,2013-09-28 07:47:00,
2013-09-28 03:52:00,49.6,48.7,30.23,NNW,343,0.0,0.0,97,0.00,,,0.01,meteohub,2013-09-28 07:52:00,
2013-09-28 03:57:00,49.8,48.9,30.23,NNW,343,0.0,0.0,97,0.00,,,0.01,meteohub,2013-09-28 07:57:00,
2013-09-28 04:02:00,49.8,48.9,30.23,NNW,343,0.0,0.0,97,0.00,,,0.01,meteohub,2013-09-28 08:02:00,
2013-09-28 04:07:00,49.5,48.6,30.23,NNW,343,0.0,0.0,97,0.00,,,0.01,meteohub,2013-09-28 08:07:00,
2013-09-28 04:12:00,49.3,48.4,30.23,NNW,343,0.0,0.0,97,0.00,,,0.01,meteohub,2013-09-28 08:12:00,
2013-09-28 04:17:00,49.5,48.6,30.23,NNW,343,0.0,0.0,97,0.00,,,0.01,meteohub,2013-09-28 08:17:00,
2013-09-28 04:22:00,49.5,48.6,30.23,NNW,343,0.0,0.0,97,0.00,,,0.01,meteohub,2013-09-28 08:22:00,
2013-09-28 04:27:00,49.6,48.7,30.23,NNW,343,0.0,0.0,97,0.00,,,0.01,meteohub,2013-09-28 08:27:00,
2013-09-28 04:32:00,49.8,48.9,30.23,NNW,343,0.0,0.0,97,0.00,,,0.01,meteohub,2013-09-28 08:32:00,
2013-09-28 04:37:00,49.6,48.7,30.24,NNW,343,0.0,0.0,97,0.00,,,0.01,meteohub,2013-09-28 08:37:00,
2013-09-28 04:42:00,49.6,48.7,30.23,NNW,343,0.0,0.0,97,0.00,,,0.01,meteohub,2013-09-28 08:42:00,
2013-09-28 04:47:00,49.6,48.7,30.24,NNW,343,0.0,0.0,97,0.00,,,0.01,meteohub,2013-09-28 08:47:00,
2013-09-28 04:52:00,49.6,48.7,30.24,NNW,343,0.0,0.0,97,0.00,,,0.01,meteohub,2013-09-28 08:52:00,
2013-09-28 04:57:00,49.5,48.6,30.24,NNW,343,0.0,0.0,97,0.00,,,0.01,meteohub,2013-09-28 08:57:00,
2013-09-28 05:02:00,49.5,48.6,30.24,NNW,343,0.0,0.0,97,0.00,,,0.01,meteohub,2013-09-28 09:02:00,
2013-09-28 05:07:00,49.6,48.7,30.24,NNW,343,0.0,0.0,97,0.00,,,0.01,meteohub,2013-09-28 09:07:00,
2013-09-28 05:12:00,49.6,48.7,30.24,NNW,343,0.0,0.0,97,0.00,,,0.01,meteohub,2013-09-28 09:12:00,
2013-09-28 05:17:00,49.6,48.7,30.24,NNW,343,0.0,0.0,97,0.00,,,0.01,meteohub,2013-09-28 09:17:00,
2013-09-28 05:22:00,49.3,48.4,30.24,NNW,343,0.0,0.0,97,0.00,,,0.01,meteohub,2013-09-28 09:22:00,
2013-09-28 05:27:00,48.7,47.8,30.24,NNW,343,0.0,0.0,97,0.00,,,0.01,meteohub,2013-09-28 09:27:00,
2013-09-28 05:32:00,48.7,47.8,30.24,NNW,343,0.0,0.0,97,0.00,,,0.01,meteohub,2013-09-28 09:32:00,
2013-09-28 05:37:00,48.7,47.8,30.24,NNW,343,0.0,0.0,97,0.00,,,0.01,meteohub,2013-09-28 09:37:00,
2013-09-28 05:42:00,48.7,47.8,30.24,NNW,343,0.0,0.0,97,0.00,,,0.01,meteohub,2013-09-28 09:42:00,
2013-09-28 05:47:00,49.3,48.4,30.24,SSW,207,2.0,2.0,97,0.00,,,0.01,meteohub,2013-09-28 09:47:00,
2013-09-28 05:52:00,49.8,48.9,30.24,SSW,207,0.0,3.0,97,0.00,,,0.01,meteohub,2013-09-28 09:52:00,
2013-09-28 05:57:00,50.0,49.1,30.24,SSW,207,1.0,3.0,97,0.00,,,0.01,meteohub,2013-09-28 09:57:00,
2013-09-28 06:02:00,50.4,49.8,30.24,SSW,207,0.0,3.0,98,0.00,,,0.01,meteohub,2013-09-28 10:02:00,
2013-09-28 06:07:00,50.5,50.0,30.24,SSW,207,0.0,3.0,98,0.00,,,0.01,meteohub,2013-09-28 10:07:00,
2013-09-28 06:12:00,50.4,49.5,30.24,SSW,207,0.0,3.0,97,0.00,,,0.01,meteohub,2013-09-28 10:12:00,
2013-09-28 06:17:00,50.4,49.5,30.24,SSW,207,0.0,1.0,97,0.00,,,0.01,meteohub,2013-09-28 10:17:00,
2013-09-28 06:22:00,50.2,49.3,30.24,SSW,207,0.0,1.0,97,0.00,,,0.01,meteohub,2013-09-28 10:22:00,
2013-09-28 06:27:00,49.8,48.9,30.25,SSW,207,0.0,1.0,97,0.00,,,0.01,meteohub,2013-09-28 10:27:00,
2013-09-28 06:32:00,49.8,48.9,30.25,SSW,207,1.0,1.0,97,0.00,,,0.01,meteohub,2013-09-28 10:32:00,
2013-09-28 06:37:00,50.0,49.1,30.25,SSW,207,0.0,1.0,97,0.00,,,0.01,meteohub,2013-09-28 10:37:00,
2013-09-28 06:42:00,50.0,49.1,30.25,SSW,207,0.0,1.0,97,0.00,,,0.01,meteohub,2013-09-28 10:42:00,
2013-09-28 06:47:00,49.8,48.9,30.25,SSW,207,0.0,2.0,97,0.00,,,0.01,meteohub,2013-09-28 10:47:00,
2013-09-28 06:52:00,49.8,48.9,30.25,SSW,207,0.0,2.0,97,0.00,,,0.01,meteohub,2013-09-28 10:52:00,
2013-09-28 06:57:00,49.6,48.7,30.25,SSW,207,0.0,0.0,97,0.00,,,0.01,meteohub,2013-09-28 10:57:00,
2013-09-28 07:02:00,49.3,48.2,30.25,SSW,207,0.0,0.0,96,0.00,,,0.01,meteohub,2013-09-28 11:02:00,
2013-09-28 07:07:00,48.9,47.8,30.25,SSW,207,0.0,0.0,96,0.00,,,0.01,meteohub,2013-09-28 11:07:00,
2013-09-28 07:12:00,48.7,47.8,30.25,SSW,207,0.0,0.0,97,0.00,,,0.01,meteohub,2013-09-28 11:12:00,
2013-09-28 07:17:00,48.6,47.7,30.26,SSW,207,0.0,0.0,97,0.00,,,0.01,meteohub,2013-09-28 11:17:00,
2013-09-28 07:22:00,48.7,47.8,30.25,SSW,207,0.0,1.0,97,0.00,,,0.01,meteohub,2013-09-28 11:22:00,
2013-09-28 07:27:00,48.9,48.0,30.26,SSW,207,0.0,1.0,97,0.00,,,0.01,meteohub,2013-09-28 11:27:00,
2013-09-28 07:32:00,48.9,48.0,30.26,SSW,207,0.0,1.0,97,0.00,,,0.01,meteohub,2013-09-28 11:32:00,
2013-09-28 07:37:00,49.3,48.4,30.26,SSW,207,1.0,1.0,97,0.00,,,0.01,meteohub,2013-09-28 11:37:00,
2013-09-28 07:42:00,49.6,48.7,30.26,SSW,207,0.0,1.0,97,0.00,,,0.01,meteohub,2013-09-28 11:42:00,
2013-09-28 07:47:00,50.2,49.3,30.26,SSW,207,0.0,1.0,97,0.00,,,0.01,meteohub,2013-09-28 11:47:00,
2013-09-28 07:52:00,50.5,50.0,30.26,SSW,207,0.0,1.0,98,0.00,,,0.01,meteohub,2013-09-28 11:52:00,
2013-09-28 07:57:00,50.9,50.0,30.27,SSW,207,0.0,1.0,97,0.00,,,0.01,meteohub,2013-09-28 11:57:00,
2013-09-28 08:02:00,51.3,50.7,30.27,SSW,207,0.0,1.0,98,0.00,,,0.01,meteohub,2013-09-28 12:02:00,
2013-09-28 08:07:00,51.6,51.1,30.27,SSW,207,1.0,1.0,98,0.00,,,0.01,meteohub,2013-09-28 12:07:00,
2013-09-28 08:12:00,52.2,51.3,30.27,SSW,207,1.0,2.0,97,0.00,,,0.01,meteohub,2013-09-28 12:12:00,
2013-09-28 08:17:00,52.3,51.8,30.27,SSW,207,1.0,3.0,98,0.00,,,0.01,meteohub,2013-09-28 12:17:00,
2013-09-28 08:22:00,52.5,51.6,30.27,SSW,207,1.0,3.0,97,0.00,,,0.01,meteohub,2013-09-28 12:22:00,
2013-09-28 08:27:00,52.9,52.0,30.27,SSW,207,1.0,3.0,97,0.00,,,0.01,meteohub,2013-09-28 12:27:00,
2013-09-28 08:32:00,53.2,52.3,30.27,SSW,207,1.0,3.0,97,0.00,,,0.01,meteohub,2013-09-28 12:32:00,
2013-09-28 08:37:00,53.4,52.3,30.27,South,190,3.0,3.0,96,0.00,,,0.01,meteohub,2013-09-28 12:37:00,
2013-09-28 08:42:00,53.6,52.5,30.27,South,188,2.0,3.0,96,0.00,,,0.01,meteohub,2013-09-28 12:42:00,
2013-09-28 08:47:00,53.8,52.3,30.27,South,182,2.0,4.0,95,0.00,,,0.01,meteohub,2013-09-28 12:47:00,
2013-09-28 08:52:00,54.0,52.5,30.27,South,182,2.0,4.0,95,0.00,,,0.01,meteohub,2013-09-28 12:52:00,
2013-09-28 08:57:00,54.1,52.5,30.27,SSW,197,2.0,4.0,94,0.00,,,0.01,meteohub,2013-09-28 12:57:00,
2013-09-28 09:02:00,54.7,53.1,30.27,WSW,257,4.0,4.0,94,0.00,,,0.01,meteohub,2013-09-28 13:02:00,
2013-09-28 09:07:00,54.9,52.9,30.27,SW,217,4.0,5.0,93,0.00,,,0.01,meteohub,2013-09-28 13:07:00,
2013-09-28 09:12:00,54.9,52.9,30.27,SSW,193,2.0,6.0,93,0.00,,,0.01,meteohub,2013-09-28 13:12:00,
2013-09-28 09:17:00,55.2,52.9,30.27,SSE,166,4.0,7.0,92,0.00,,,0.01,meteohub,2013-09-28 13:17:00,
2013-09-28 09:22:00,55.6,53.2,30.27,SSW,196,1.0,7.0,92,0.00,,,0.01,meteohub,2013-09-28 13:22:00,
2013-09-28 09:27:00,55.8,53.2,30.27,SW,217,3.0,7.0,91,0.00,,,0.01,meteohub,2013-09-28 13:27:00,
2013-09-28 09:32:00,56.1,53.6,30.27,South,175,2.0,7.0,91,0.00,,,0.01,meteohub,2013-09-28 13:32:00,
2013-09-28 09:37:00,56.7,54.1,30.27,SSE,150,5.0,7.0,91,0.00,,,0.01,meteohub,2013-09-28 13:37:00,
2013-09-28 09:42:00,56.8,54.0,30.27,SSW,198,4.0,7.0,90,0.00,,,0.01,meteohub,2013-09-28 13:42:00,
2013-09-28 09:47:00,57.4,54.1,30.27,SSW,210,3.0,7.0,89,0.00,,,0.01,meteohub,2013-09-28 13:47:00,
2013-09-28 09:52:00,57.6,54.3,30.27,SW,229,4.0,7.0,89,0.00,,,0.01,meteohub,2013-09-28 13:52:00,
2013-09-28 09:57:00,57.9,54.7,30.27,SSW,207,0.0,7.0,89,0.00,,,0.01,meteohub,2013-09-28 13:57:00,
2013-09-28 10:02:00,58.5,55.6,30.27,SW,214,6.0,7.0,90,0.00,,,0.01,meteohub,2013-09-28 14:02:00,
2013-09-28 10:07:00,58.8,55.6,30.27,SSW,198,6.0,6.0,89,0.00,,,0.01,meteohub,2013-09-28 14:07:00,
2013-09-28 10:12:00,59.2,55.6,30.27,SSE,152,2.0,7.0,88,0.00,,,0.01,meteohub,2013-09-28 14:12:00,
2013-09-28 10:17:00,59.5,55.4,30.27,SW,216,3.0,7.0,86,0.00,,,0.01,meteohub,2013-09-28 14:17:00,
2013-09-28 10:22:00,59.7,55.8,30.27,WSW,255,5.0,7.0,87,0.00,,,0.01,meteohub,2013-09-28 14:22:00,
2013-09-28 10:27:00,60.1,56.1,30.27,South,191,4.0,8.0,87,0.00,,,0.01,meteohub,2013-09-28 14:27:00,
2013-09-28 10:32:00,60.6,56.5,30.27,SW,225,6.0,8.0,86,0.00,,,0.01,meteohub,2013-09-28 14:32:00,
2013-09-28 10:37:00,61.0,56.5,30.27,SSW,213,6.0,8.0,85,0.00,,,0.01,meteohub,2013-09-28 14:37:00,
2013-09-28 10:42:00,61.2,55.9,30.27,SSW,209,6.0,8.0,83,0.00,,,0.01,meteohub,2013-09-28 14:42:00,
2013-09-28 10:47:00,61.3,56.1,30.27,South,182,3.0,11.0,83,0.00,,,0.01,meteohub,2013-09-28 14:47:00,
2013-09-28 10:52:00,61.5,55.9,30.27,SSW,206,7.0,11.0,82,0.00,,,0.01,meteohub,2013-09-28 14:52:00,
2013-09-28 10:57:00,61.9,56.7,30.27,SSW,192,6.0,11.0,83,0.00,,,0.01,meteohub,2013-09-28 14:57:00,
2013-09-28 11:02:00,62.2,55.9,30.26,South,179,6.0,8.0,80,0.00,,,0.01,meteohub,2013-09-28 15:02:00,
2013-09-28 11:07:00,62.8,56.8,30.26,SSW,205,5.0,8.0,81,0.00,,,0.01,meteohub,2013-09-28 15:07:00,
2013-09-28 11:12:00,63.0,56.3,30.26,South,173,2.0,8.0,79,0.00,,,0.01,meteohub,2013-09-28 15:12:00,
2013-09-28 11:17:00,63.0,55.9,30.26,SSW,196,3.0,10.0,78,0.00,,,0.01,meteohub,2013-09-28 15:17:00,
2013-09-28 11:22:00,63.1,56.8,30.26,SW,221,0.0,10.0,80,0.00,,,0.01,meteohub,2013-09-28 15:22:00,
2013-09-28 11:27:00,63.9,57.2,30.26,SSW,206,4.0,10.0,79,0.00,,,0.01,meteohub,2013-09-28 15:27:00,
2013-09-28 11:32:00,64.2,57.6,30.26,South,173,2.0,8.0,79,0.00,,,0.01,meteohub,2013-09-28 15:32:00,
2013-09-28 11:37:00,64.2,56.5,30.26,SSW,207,5.0,8.0,76,0.00,,,0.01,meteohub,2013-09-28 15:37:00,
2013-09-28 11:42:00,64.2,56.8,30.26,SSW,197,4.0,9.0,77,0.00,,,0.01,meteohub,2013-09-28 15:42:00,
2013-09-28 11:47:00,64.8,57.0,30.25,SSE,154,6.0,9.0,76,0.00,,,0.01,meteohub,2013-09-28 15:47:00,
2013-09-28 11:52:00,64.9,56.8,30.25,SW,217,4.0,9.0,75,0.00,,,0.01,meteohub,2013-09-28 15:52:00,
2013-09-28 11:57:00,65.3,57.6,30.25,South,184,6.0,9.0,76,0.00,,,0.01,meteohub,2013-09-28 15:57:00,
2013-09-28 12:02:00,65.7,57.9,30.25,South,175,2.0,8.0,76,0.00,,,0.01,meteohub,2013-09-28 16:02:00,
2013-09-28 12:07:00,65.8,57.0,30.25,South,188,1.0,8.0,73,0.00,,,0.01,meteohub,2013-09-28 16:07:00,
2013-09-28 12:12:00,66.4,57.9,30.25,South,184,2.0,8.0,74,0.00,,,0.01,meteohub,2013-09-28 16:12:00,
2013-09-28 12:17:00,66.7,57.7,30.25,WNW,288,2.0,7.0,73,0.00,,,0.01,meteohub,2013-09-28 16:17:00,
2013-09-28 12:22:00,67.1,58.5,30.25,West,271,0.0,7.0,74,0.00,,,0.01,meteohub,2013-09-28 16:22:00,
2013-09-28 12:27:00,67.5,58.5,30.25,West,273,2.0,8.0,73,0.00,,,0.01,meteohub,2013-09-28 16:27:00,
2013-09-28 12:32:00,67.6,58.3,30.25,WNW,296,0.0,8.0,72,0.00,,,0.01,meteohub,2013-09-28 16:32:00,
2013-09-28 12:37:00,67.6,57.9,30.25,SW,232,3.0,8.0,71,0.00,,,0.01,meteohub,2013-09-28 16:37:00,
2013-09-28 12:42:00,68.4,58.6,30.25,WNW,282,3.0,8.0,71,0.00,,,0.01,meteohub,2013-09-28 16:42:00,
2013-09-28 12:47:00,68.5,58.3,30.25,South,175,6.0,8.0,70,0.00,,,0.01,meteohub,2013-09-28 16:47:00,
2013-09-28 12:52:00,68.5,58.3,30.25,SE,132,2.0,8.0,70,0.00,,,0.01,meteohub,2013-09-28 16:52:00,
2013-09-28 12:57:00,68.9,58.6,30.25,South,184,3.0,8.0,70,0.00,,,0.01,meteohub,2013-09-28 16:57:00,
2013-09-28 13:02:00,69.3,57.4,30.25,West,263,2.0,8.0,66,0.00,,,0.01,meteohub,2013-09-28 17:02:00,
2013-09-28 13:07:00,69.4,56.7,30.25,SSE,165,3.0,7.0,64,0.00,,,0.01,meteohub,2013-09-28 17:07:00,
2013-09-28 13:12:00,69.4,55.9,30.25,SW,217,4.0,8.0,62,0.00,,,0.01,meteohub,2013-09-28 17:12:00,
2013-09-28 13:17:00,69.6,56.5,30.25,South,188,5.0,11.0,63,0.00,,,0.01,meteohub,2013-09-28 17:17:00,
2013-09-28 13:22:00,69.4,55.4,30.25,WNW,290,2.0,11.0,61,0.00,,,0.01,meteohub,2013-09-28 17:22:00,
2013-09-28 13:27:00,69.4,55.4,30.24,SSW,209,5.0,11.0,61,0.00,,,0.01,meteohub,2013-09-28 17:27:00,
2013-09-28 13:32:00,69.4,56.7,30.24,South,179,4.0,9.0,64,0.00,,,0.01,meteohub,2013-09-28 17:32:00,
2013-09-28 13:37:00,69.6,55.6,30.24,South,172,1.0,9.0,61,0.00,,,0.01,meteohub,2013-09-28 17:37:00,
2013-09-28 13:42:00,70.2,57.4,30.23,SSW,202,4.0,8.0,64,0.00,,,0.01,meteohub,2013-09-28 17:42:00,
2013-09-28 13:47:00,70.2,55.6,30.23,South,181,7.0,8.0,60,0.00,,,0.01,meteohub,2013-09-28 17:47:00,
2013-09-28 13:52:00,70.0,55.9,30.23,WSW,244,5.0,8.0,61,0.00,,,0.01,meteohub,2013-09-28 17:52:00,
2013-09-28 13:57:00,70.5,57.4,30.22,WSW,240,3.0,8.0,63,0.00,,,0.01,meteohub,2013-09-28 17:57:00,
2013-09-28 14:02:00,70.7,56.7,30.22,SW,234,3.0,8.0,61,0.00,,,0.01,meteohub,2013-09-28 18:02:00,
2013-09-28 14:07:00,70.7,55.6,30.22,SSE,148,7.0,7.0,59,0.00,,,0.01,meteohub,2013-09-28 18:07:00,
2013-09-28 14:12:00,70.5,56.5,30.22,South,180,3.0,8.0,61,0.00,,,0.01,meteohub,2013-09-28 18:12:00,
2013-09-28 14:17:00,70.9,54.9,30.21,West,272,7.0,13.0,57,0.00,,,0.01,meteohub,2013-09-28 18:17:00,
2013-09-28 14:22:00,71.2,56.7,30.21,SSW,205,7.0,13.0,60,0.00,,,0.01,meteohub,2013-09-28 18:22:00,
2013-09-28 14:27:00,71.2,55.8,30.21,South,181,3.0,13.0,58,0.00,,,0.01,meteohub,2013-09-28 18:27:00,
2013-09-28 14:32:00,71.2,55.2,30.20,SSW,212,5.0,9.0,57,0.00,,,0.01,meteohub,2013-09-28 18:32:00,
2013-09-28 14:37:00,71.4,54.5,30.21,SW,228,6.0,11.0,55,0.00,,,0.01,meteohub,2013-09-28 18:37:00,
2013-09-28 14:42:00,71.6,56.5,30.20,SW,219,2.0,11.0,59,0.00,,,0.01,meteohub,2013-09-28 18:42:00,
2013-09-28 14:47:00,72.0,55.4,30.20,SSE,152,6.0,11.0,56,0.00,,,0.01,meteohub,2013-09-28 18:47:00,
2013-09-28 14:52:00,72.0,55.9,30.20,SW,226,6.0,7.0,57,0.00,,,0.01,meteohub,2013-09-28 18:52:00,
2013-09-28 14:57:00,71.8,54.7,30.20,SSE,159,7.0,7.0,55,0.00,,,0.01,meteohub,2013-09-28 18:57:00,
2013-09-28 15:02:00,71.6,54.5,30.19,SSE,161,6.0,9.0,55,0.00,,,0.01,meteohub,2013-09-28 19:02:00,
2013-09-28 15:07:00,71.4,54.9,30.19,South,185,4.0,10.0,56,0.00,,,0.01,meteohub,2013-09-28 19:07:00,
2013-09-28 15:12:00,71.4,54.5,30.19,South,176,5.0,10.0,55,0.00,,,0.01,meteohub,2013-09-28 19:12:00,
2013-09-28 15:17:00,71.6,57.0,30.19,West,263,6.0,10.0,60,0.00,,,0.01,meteohub,2013-09-28 19:17:00,
2013-09-28 15:22:00,71.8,56.7,30.19,South,173,4.0,13.0,59,0.00,,,0.01,meteohub,2013-09-28 19:22:00,
2013-09-28 15:27:00,71.6,55.6,30.19,South,187,7.0,13.0,57,0.00,,,0.01,meteohub,2013-09-28 19:27:00,
2013-09-28 15:32:00,71.4,55.9,30.19,SW,223,5.0,13.0,58,0.00,,,0.01,meteohub,2013-09-28 19:32:00,
2013-09-28 15:37:00,71.8,57.2,30.18,SSE,158,4.0,11.0,60,0.00,,,0.01,meteohub,2013-09-28 19:37:00,
2013-09-28 15:42:00,71.8,55.8,30.18,SSE,165,4.0,11.0,57,0.00,,,0.01,meteohub,2013-09-28 19:42:00,
2013-09-28 15:47:00,71.4,55.9,30.18,South,171,3.0,10.0,58,0.00,,,0.01,meteohub,2013-09-28 19:47:00,
2013-09-28 15:52:00,71.2,55.8,30.18,SW,223,5.0,10.0,58,0.00,,,0.01,meteohub,2013-09-28 19:52:00,
2013-09-28 15:57:00,71.4,55.9,30.18,SW,218,3.0,11.0,58,0.00,,,0.01,meteohub,2013-09-28 19:57:00,
2013-09-28 16:02:00,71.2,55.8,30.17,SSW,199,5.0,11.0,58,0.00,,,0.01,meteohub,2013-09-28 20:02:00,
2013-09-28 16:07:00,71.8,57.6,30.17,SW,234,1.0,11.0,61,0.00,,,0.01,meteohub,2013-09-28 20:07:00,
2013-09-28 16:12:00,71.8,55.2,30.17,SW,230,5.0,8.0,56,0.00,,,0.01,meteohub,2013-09-28 20:12:00,
2013-09-28 16:17:00,71.6,56.1,30.17,SW,236,5.0,9.0,58,0.00,,,0.01,meteohub,2013-09-28 20:17:00,
2013-09-28 16:22:00,71.6,56.1,30.17,South,184,4.0,9.0,58,0.00,,,0.01,meteohub,2013-09-28 20:22:00,
2013-09-28 16:27:00,71.4,55.4,30.17,SW,228,8.0,11.0,57,0.00,,,0.01,meteohub,2013-09-28 20:27:00,
2013-09-28 16:32:00,71.8,55.8,30.17,South,188,5.0,11.0,57,0.00,,,0.01,meteohub,2013-09-28 20:32:00,
2013-09-28 16:37:00,71.4,55.4,30.17,SSW,211,5.0,9.0,57,0.00,,,0.01,meteohub,2013-09-28 20:37:00,
2013-09-28 16:42:00,71.6,56.1,30.17,South,188,2.0,10.0,58,0.00,,,0.01,meteohub,2013-09-28 20:42:00,
2013-09-28 16:47:00,71.8,55.8,30.16,SW,220,7.0,10.0,57,0.00,,,0.01,meteohub,2013-09-28 20:47:00,
2013-09-28 16:52:00,71.4,55.4,30.16,SSW,213,0.0,8.0,57,0.00,,,0.01,meteohub,2013-09-28 20:52:00,
2013-09-28 16:57:00,71.4,55.4,30.16,West,277,3.0,8.0,57,0.00,,,0.01,meteohub,2013-09-28 20:57:00,
2013-09-28 17:02:00,71.6,56.1,30.16,South,178,5.0,8.0,58,0.00,,,0.01,meteohub,2013-09-28 21:02:00,
2013-09-28 17:07:00,71.2,55.2,30.16,South,171,3.0,8.0,57,0.00,,,0.01,meteohub,2013-09-28 21:07:00,
2013-09-28 17:12:00,70.9,55.4,30.16,SSW,212,4.0,9.0,58,0.00,,,0.01,meteohub,2013-09-28 21:12:00,
2013-09-28 17:17:00,70.5,55.6,30.16,SW,219,3.0,9.0,59,0.00,,,0.01,meteohub,2013-09-28 21:17:00,
2013-09-28 17:22:00,70.3,55.8,30.16,SSW,201,6.0,9.0,60,0.00,,,0.01,meteohub,2013-09-28 21:22:00,
2013-09-28 17:27:00,70.2,55.6,30.16,SW,229,3.0,7.0,60,0.00,,,0.01,meteohub,2013-09-28 21:27:00,
2013-09-28 17:32:00,70.0,56.3,30.16,WSW,245,4.0,7.0,62,0.00,,,0.01,meteohub,2013-09-28 21:32:00,
2013-09-28 17:38:00,69.8,55.8,30.16,WSW,252,1.0,7.0,61,0.00,,,0.01,meteohub,2013-09-28 21:38:00,
2013-09-28 17:43:00,69.6,55.6,30.16,WSW,242,0.0,8.0,61,0.00,,,0.01,meteohub,2013-09-28 21:43:00,
2013-09-28 17:48:00,69.4,56.3,30.16,SSW,205,4.0,8.0,63,0.00,,,0.01,meteohub,2013-09-28 21:48:00,
2013-09-28 17:53:00,69.3,55.8,30.16,South,186,2.0,8.0,62,0.00,,,0.01,meteohub,2013-09-28 21:53:00,
2013-09-28 17:58:00,69.1,56.5,30.16,SSW,200,1.0,7.0,64,0.00,,,0.01,meteohub,2013-09-28 21:58:00,
2013-09-28 18:03:00,68.5,55.9,30.16,SW,222,3.0,7.0,64,0.00,,,0.01,meteohub,2013-09-28 22:03:00,
2013-09-28 18:08:00,68.4,55.8,30.16,SW,223,2.0,7.0,64,0.00,,,0.01,meteohub,2013-09-28 22:08:00,
2013-09-28 18:13:00,68.2,55.9,30.16,SSW,197,2.0,6.0,65,0.00,,,0.01,meteohub,2013-09-28 22:13:00,
2013-09-28 18:18:00,68.0,56.3,30.15,SSW,197,0.0,6.0,66,0.00,,,0.01,meteohub,2013-09-28 22:18:00,
2013-09-28 18:23:00,67.6,56.3,30.15,South,186,3.0,6.0,67,0.00,,,0.01,meteohub,2013-09-28 22:23:00,
2013-09-28 18:28:00,67.5,56.5,30.15,SSW,211,2.0,5.0,68,0.00,,,0.01,meteohub,2013-09-28 22:28:00,
2013-09-28 18:33:00,67.3,56.8,30.15,SSW,203,1.0,5.0,69,0.00,,,0.01,meteohub,2013-09-28 22:33:00,
2013-09-28 18:38:00,66.9,56.5,30.15,SSW,209,0.0,5.0,69,0.00,,,0.01,meteohub,2013-09-28 22:38:00,
2013-09-28 18:43:00,66.7,56.7,30.15,SSW,209,0.0,5.0,70,0.00,,,0.01,meteohub,2013-09-28 22:43:00,
2013-09-28 18:48:00,66.4,56.7,30.15,SSW,209,1.0,3.0,71,0.00,,,0.01,meteohub,2013-09-28 22:48:00,
2013-09-28 18:54:00,66.0,56.3,30.15,SSW,209,3.0,3.0,71,0.00,,,0.01,meteohub,2013-09-28 22:54:00,
2013-09-28 18:59:00,65.8,56.5,30.15,SSW,207,0.0,3.0,72,0.00,,,0.01,meteohub,2013-09-28 22:59:00,
2013-09-28 19:04:00,65.5,56.7,30.15,SW,227,1.0,3.0,73,0.00,,,0.01,meteohub,2013-09-28 23:04:00,
2013-09-28 19:09:00,65.1,56.3,30.15,SSW,202,3.0,3.0,73,0.00,,,0.01,meteohub,2013-09-28 23:09:00,
2013-09-28 19:14:00,64.8,56.3,30.15,SSW,197,2.0,3.0,74,0.00,,,0.01,meteohub,2013-09-28 23:14:00,
2013-09-28 19:19:00,64.6,56.1,30.15,SSW,200,1.0,4.0,74,0.00,,,0.01,meteohub,2013-09-28 23:19:00,
2013-09-28 19:24:00,64.0,55.9,30.15,SSW,203,2.0,4.0,75,0.00,,,0.01,meteohub,2013-09-28 23:24:00,
2013-09-28 19:29:00,63.9,55.8,30.15,SW,224,0.0,4.0,75,0.00,,,0.01,meteohub,2013-09-28 23:29:00,
2013-09-28 19:34:00,63.7,55.9,30.15,SW,223,1.0,3.0,76,0.00,,,0.01,meteohub,2013-09-28 23:34:00,
2013-09-28 19:39:00,63.3,55.6,30.15,SW,220,0.0,3.0,76,0.00,,,0.01,meteohub,2013-09-28 23:39:00,
2013-09-28 19:44:00,63.1,55.8,30.15,SW,215,1.0,3.0,77,0.00,,,0.01,meteohub,2013-09-28 23:44:00,
2013-09-28 19:49:00,63.0,55.6,30.15,SW,215,2.0,3.0,77,0.00,,,0.01,meteohub,2013-09-28 23:49:00,
2013-09-28 19:54:00,62.8,55.4,30.15,SSW,212,1.0,4.0,77,0.00,,,0.01,meteohub,2013-09-28 23:54:00,
2013-09-28 20:00:00,62.6,55.6,30.15,SSW,212,2.0,4.0,78,0.00,,,0.01,meteohub,2013-09-29 00:00:00,
2013-09-28 20:05:00,62.4,55.4,30.15,SSW,212,2.0,3.0,78,0.00,,,0.01,meteohub,2013-09-29 00:05:00,
2013-09-28 20:10:00,62.2,55.2,30.15,SSW,212,2.0,4.0,78,0.00,,,0.00,meteohub,2013-09-29 00:10:00,
2013-09-28 20:15:00,62.1,55.0,30.15,SSW,207,0.0,4.0,78,0.00,,,0.00,meteohub,2013-09-29 00:15:00,
2013-09-28 20:20:00,61.9,55.2,30.15,SW,216,1.0,6.0,79,0.00,,,0.00,meteohub,2013-09-29 00:20:00,
2013-09-28 20:25:00,61.5,54.9,30.15,SW,216,1.0,6.0,79,0.00,,,0.00,meteohub,2013-09-29 00:25:00,
2013-09-28 20:30:00,61.3,55.0,30.15,SW,216,1.0,6.0,80,0.00,,,0.00,meteohub,2013-09-29 00:30:00,
2013-09-28 20:35:00,61.2,54.9,30.15,SW,216,2.0,3.0,80,0.00,,,0.00,meteohub,2013-09-29 00:35:00,
2013-09-28 20:40:00,61.0,54.7,30.15,SW,216,0.0,3.0,80,0.00,,,0.00,meteohub,2013-09-29 00:40:00,
2013-09-28 20:45:00,61.0,54.7,30.16,SW,220,1.0,4.0,80,0.00,,,0.00,meteohub,2013-09-29 00:45:00,
2013-09-28 20:50:00,61.0,54.7,30.16,SW,224,1.0,4.0,80,0.00,,,0.00,meteohub,2013-09-29 00:50:00,
2013-09-28 20:55:00,60.6,54.7,30.16,SSW,211,3.0,4.0,81,0.00,,,0.00,meteohub,2013-09-29 00:55:00,
2013-09-28 21:00:00,60.6,54.7,30.16,SSW,203,0.0,4.0,81,0.00,,,0.00,meteohub,2013-09-29 01:00:00,
2013-09-28 21:05:00,60.4,54.5,30.16,SW,215,2.0,5.0,81,0.00,,,0.00,meteohub,2013-09-29 01:05:00,
2013-09-28 21:11:00,60.3,54.3,30.16,SW,215,0.0,5.0,81,0.00,,,0.00,meteohub,2013-09-29 01:11:00,
2013-09-28 21:16:00,60.1,54.5,30.16,SW,215,1.0,5.0,82,0.00,,,0.00,meteohub,2013-09-29 01:16:00,
2013-09-28 21:21:00,59.7,54.1,30.16,SW,215,1.0,2.0,82,0.00,,,0.00,meteohub,2013-09-29 01:21:00,
2013-09-28 21:26:00,59.5,54.3,30.16,WSW,241,0.0,3.0,83,0.00,,,0.00,meteohub,2013-09-29 01:26:00,
2013-09-28 21:31:00,59.5,54.3,30.16,SW,235,2.0,4.0,83,0.00,,,0.00,meteohub,2013-09-29 01:31:00,
2013-09-28 21:36:00,59.4,54.1,30.16,SW,215,3.0,4.0,83,0.00,,,0.00,meteohub,2013-09-29 01:36:00,
2013-09-28 21:41:00,59.4,54.1,30.16,SSW,197,0.0,5.0,83,0.00,,,0.00,meteohub,2013-09-29 01:41:00,
2013-09-28 21:46:00,59.2,54.0,30.16,South,191,2.0,5.0,83,0.00,,,0.00,meteohub,2013-09-29 01:46:00,
2013-09-28 21:51:00,59.0,53.8,30.16,South,189,3.0,5.0,83,0.00,,,0.00,meteohub,2013-09-29 01:51:00,
2013-09-28 21:57:00,58.8,54.0,30.16,SW,219,3.0,4.0,84,0.00,,,0.00,meteohub,2013-09-29 01:57:00,
2013-09-28 22:02:00,58.6,53.8,30.15,SSW,198,2.0,6.0,84,0.00,,,0.00,meteohub,2013-09-29 02:02:00,
2013-09-28 22:07:00,58.6,53.4,30.16,SW,224,4.0,6.0,83,0.00,,,0.00,meteohub,2013-09-29 02:07:00,
2013-09-28 22:12:00,58.6,53.4,30.16,SW,231,2.0,9.0,83,0.00,,,0.00,meteohub,2013-09-29 02:12:00,
2013-09-28 22:17:00,58.6,53.4,30.16,SSW,202,2.0,9.0,83,0.00,,,0.00,meteohub,2013-09-29 02:17:00,
2013-09-28 22:22:00,58.5,53.2,30.16,SSW,192,3.0,9.0,83,0.00,,,0.00,meteohub,2013-09-29 02:22:00,
2013-09-28 22:27:00,58.3,53.1,30.16,SSW,197,4.0,7.0,83,0.00,,,0.00,meteohub,2013-09-29 02:27:00,
2013-09-28 22:32:00,58.3,53.1,30.16,SSW,197,2.0,8.0,83,0.00,,,0.00,meteohub,2013-09-29 02:32:00,
2013-09-28 22:37:00,57.9,52.7,30.16,SSW,213,5.0,8.0,83,0.00,,,0.00,meteohub,2013-09-29 02:37:00,
2013-09-28 22:42:00,57.9,52.7,30.16,SW,221,4.0,8.0,83,0.00,,,0.00,meteohub,2013-09-29 02:42:00,
2013-09-28 22:47:00,57.7,52.7,30.16,SSW,205,3.0,6.0,83,0.00,,,0.00,meteohub,2013-09-29 02:47:00,
2013-09-28 22:52:00,57.7,52.7,30.16,SSW,210,5.0,8.0,83,0.00,,,0.00,meteohub,2013-09-29 02:52:00,
2013-09-28 22:57:00,57.6,52.5,30.16,SW,217,6.0,10.0,83,0.00,,,0.00,meteohub,2013-09-29 02:57:00,
2013-09-28 23:02:00,57.6,52.5,30.15,South,178,1.0,10.0,83,0.00,,,0.00,meteohub,2013-09-29 03:02:00,
2013-09-28 23:07:00,57.2,52.2,30.15,SSW,201,3.0,10.0,83,0.00,,,0.00,meteohub,2013-09-29 03:07:00,
2013-09-28 23:12:00,57.0,52.0,30.15,SW,217,5.0,7.0,83,0.00,,,0.00,meteohub,2013-09-29 03:12:00,
2013-09-28 23:18:00,57.0,52.0,30.15,SSW,211,3.0,6.0,83,0.00,,,0.00,meteohub,2013-09-29 03:18:00,
2013-09-28 23:23:00,56.8,51.8,30.15,SSW,206,1.0,7.0,83,0.00,,,0.00,meteohub,2013-09-29 03:23:00,
2013-09-28 23:28:00,56.7,51.8,30.15,SSW,198,1.0,7.0,84,0.00,,,0.00,meteohub,2013-09-29 03:28:00,
2013-09-28 23:33:00,56.7,51.8,30.15,SW,222,3.0,6.0,84,0.00,,,0.00,meteohub,2013-09-29 03:33:00,
2013-09-28 23:39:00,56.5,51.6,30.15,SSW,206,5.0,6.0,84,0.00,,,0.00,meteohub,2013-09-29 03:39:00,
2013-09-28 23:44:00,56.3,51.4,30.14,SSE,165,3.0,6.0,84,0.00,,,0.00,meteohub,2013-09-29 03:44:00,
2013-09-28 23:49:00,56.1,51.4,30.14,South,184,2.0,7.0,84,0.00,,,0.00,meteohub,2013-09-29 03:49:00,
2013-09-28 23:54:00,55.9,51.3,30.14,SSW,199,1.0,7.0,84,0.00,,,0.00,meteohub,2013-09-29 03:54:00,